sensor_id;sensor_type;location;lat;lon;timestamp;pressure;altitude;pressure_sealevel;temperature;humidity
59435;BME280;45241;49.768;8.636;2023-04-23T00:01:16;99509.44;;;14.81;100.00
59435;BME280;45241;49.768;8.636;2023-04-23T00:03:43;99511.03;;;15.06;100.00
59435;BME280;45241;49.768;8.636;2023-04-23T00:06:09;99511.28;;;15.04;100.00
59435;BME280;45241;49.768;8.636;2023-04-23T00:08:38;99512.53;;;15.13;100.00
59435;BME280;45241;49.768;8.636;2023-04-23T00:11:04;99512.44;;;15.08;100.00
59435;BME280;45241;49.768;8.636;2023-04-23T00:13:29;99509.25;;;15.11;100.00
59435;BME280;45241;49.768;8.636;2023-04-23T00:15:55;99511.03;;;15.06;100.00
59435;BME280;45241;49.768;8.636;2023-04-23T00:18:20;99517.16;;;14.89;100.00
59435;BME280;45241;49.768;8.636;2023-04-23T00:20:46;99507.38;;;15.12;100.00
59435;BME280;45241;49.768;8.636;2023-04-23T00:23:11;99515.97;;;15.09;100.00
59435;BME280;45241;49.768;8.636;2023-04-23T00:25:36;99515.88;;;14.92;100.00
59435;BME280;45241;49.768;8.636;2023-04-23T00:28:02;99518.81;;;14.90;100.00
59435;BME280;45241;49.768;8.636;2023-04-23T00:30:27;99519.84;;;15.01;100.00
59435;BME280;45241;49.768;8.636;2023-04-23T00:32:53;99516.88;;;15.03;100.00
59435;BME280;45241;49.768;8.636;2023-04-23T00:35:18;99514.19;;;15.03;100.00
59435;BME280;45241;49.768;8.636;2023-04-23T00:37:44;99519.38;;;15.04;100.00
59435;BME280;45241;49.768;8.636;2023-04-23T00:40:10;99514.34;;;14.96;100.00
59435;BME280;45241;49.768;8.636;2023-04-23T00:42:37;99507.41;;;14.88;100.00
59435;BME280;45241;49.768;8.636;2023-04-23T00:45:03;99512.31;;;15.03;100.00
59435;BME280;45241;49.768;8.636;2023-04-23T00:47:30;99515.66;;;14.82;100.00
59435;BME280;45241;49.768;8.636;2023-04-23T00:49:56;99514.59;;;14.83;100.00
59435;BME280;45241;49.768;8.636;2023-04-23T00:52:22;99515.88;;;14.92;100.00
59435;BME280;45241;49.768;8.636;2023-04-23T00:54:47;99515.06;;;14.80;100.00
59435;BME280;45241;49.768;8.636;2023-04-23T00:57:12;99509.19;;;14.71;100.00
59435;BME280;45241;49.768;8.636;2023-04-23T00:59:38;99513.88;;;14.87;100.00
59435;BME280;45241;49.768;8.636;2023-04-23T01:02:04;99509.69;;;14.68;100.00
59435;BME280;45241;49.768;8.636;2023-04-23T01:04:30;99512.94;;;14.70;100.00
59435;BME280;45241;49.768;8.636;2023-04-23T01:06:56;99515.75;;;14.63;100.00
59435;BME280;45241;49.768;8.636;2023-04-23T01:09:23;99514.69;;;14.76;100.00
59435;BME280;45241;49.768;8.636;2023-04-23T01:11:50;99516.00;;;14.50;100.00
59435;BME280;45241;49.768;8.636;2023-04-23T01:14:15;99515.66;;;14.58;100.00
59435;BME280;45241;49.768;8.636;2023-04-23T01:16:41;99514.25;;;14.56;100.00
59435;BME280;45241;49.768;8.636;2023-04-23T01:19:08;99509.56;;;14.51;100.00
59435;BME280;45241;49.768;8.636;2023-04-23T01:21:35;99516.94;;;14.44;100.00
59435;BME280;45241;49.768;8.636;2023-04-23T01:24:02;99509.19;;;14.48;100.00
59435;BME280;45241;49.768;8.636;2023-04-23T01:26:28;99516.13;;;14.67;100.00
59435;BME280;45241;49.768;8.636;2023-04-23T01:28:54;99514.34;;;14.61;100.00
59435;BME280;45241;49.768;8.636;2023-04-23T01:31:19;99512.13;;;14.58;100.00
59435;BME280;45241;49.768;8.636;2023-04-23T01:33:45;99524.44;;;14.42;100.00
59435;BME280;45241;49.768;8.636;2023-04-23T01:36:11;99520.22;;;14.46;100.00
59435;BME280;45241;49.768;8.636;2023-04-23T01:38:37;99534.09;;;14.20;100.00
59435;BME280;45241;49.768;8.636;2023-04-23T01:41:03;99529.38;;;14.45;100.00
59435;BME280;45241;49.768;8.636;2023-04-23T01:43:30;99534.41;;;14.42;100.00
59435;BME280;45241;49.768;8.636;2023-04-23T01:45:56;99524.31;;;14.60;100.00
59435;BME280;45241;49.768;8.636;2023-04-23T01:48:22;99534.41;;;14.30;100.00
59435;BME280;45241;49.768;8.636;2023-04-23T01:50:48;99530.25;;;14.27;100.00
59435;BME280;45241;49.768;8.636;2023-04-23T01:53:14;99541.50;;;14.13;100.00
59435;BME280;45241;49.768;8.636;2023-04-23T01:55:40;99539.63;;;14.25;100.00
59435;BME280;45241;49.768;8.636;2023-04-23T01:58:06;99545.94;;;14.19;100.00
59435;BME280;45241;49.768;8.636;2023-04-23T02:00:31;99546.03;;;14.42;100.00
59435;BME280;45241;49.768;8.636;2023-04-23T02:02:56;99547.53;;;13.96;100.00
59435;BME280;45241;49.768;8.636;2023-04-23T02:05:23;99551.22;;;14.14;100.00
59435;BME280;45241;49.768;8.636;2023-04-23T02:07:50;99547.59;;;14.20;100.00
59435;BME280;45241;49.768;8.636;2023-04-23T02:10:16;99541.81;;;14.04;100.00
59435;BME280;45241;49.768;8.636;2023-04-23T02:12:44;99546.94;;;14.36;100.00
59435;BME280;45241;49.768;8.636;2023-04-23T02:15:10;99543.47;;;14.05;100.00
59435;BME280;45241;49.768;8.636;2023-04-23T02:17:36;99548.53;;;14.14;100.00
59435;BME280;45241;49.768;8.636;2023-04-23T02:20:05;99547.47;;;14.15;100.00
59435;BME280;45241;49.768;8.636;2023-04-23T02:22:30;99550.84;;;14.10;100.00
59435;BME280;45241;49.768;8.636;2023-04-23T02:24:55;99551.34;;;14.19;100.00
59435;BME280;45241;49.768;8.636;2023-04-23T02:27:22;99550.34;;;14.31;100.00
59435;BME280;45241;49.768;8.636;2023-04-23T02:29:48;99549.22;;;14.21;100.00
59435;BME280;45241;49.768;8.636;2023-04-23T02:32:13;99545.59;;;14.15;100.00
59435;BME280;45241;49.768;8.636;2023-04-23T02:34:39;99550.44;;;14.36;100.00
59435;BME280;45241;49.768;8.636;2023-04-23T02:37:05;99545.63;;;14.27;100.00
59435;BME280;45241;49.768;8.636;2023-04-23T02:39:30;99556.84;;;14.24;100.00
59435;BME280;45241;49.768;8.636;2023-04-23T02:41:56;99556.16;;;14.17;100.00
59435;BME280;45241;49.768;8.636;2023-04-23T02:44:23;99556.72;;;14.19;100.00
59435;BME280;45241;49.768;8.636;2023-04-23T02:46:48;99563.41;;;14.16;100.00
59435;BME280;45241;49.768;8.636;2023-04-23T02:49:14;99564.50;;;14.27;100.00
59435;BME280;45241;49.768;8.636;2023-04-23T02:51:40;99559.59;;;14.35;100.00
59435;BME280;45241;49.768;8.636;2023-04-23T02:54:05;99551.28;;;14.37;100.00
59435;BME280;45241;49.768;8.636;2023-04-23T02:56:31;99554.31;;;14.29;100.00
59435;BME280;45241;49.768;8.636;2023-04-23T02:58:56;99555.44;;;14.21;100.00
59435;BME280;45241;49.768;8.636;2023-04-23T03:01:21;99554.84;;;14.19;100.00
59435;BME280;45241;49.768;8.636;2023-04-23T03:03:47;99559.47;;;14.30;100.00
59435;BME280;45241;49.768;8.636;2023-04-23T03:06:12;99555.16;;;14.41;100.00
59435;BME280;45241;49.768;8.636;2023-04-23T03:08:38;99556.63;;;14.25;100.00
59435;BME280;45241;49.768;8.636;2023-04-23T03:11:03;99553.63;;;14.33;100.00
59435;BME280;45241;49.768;8.636;2023-04-23T03:13:28;99566.88;;;14.35;100.00
59435;BME280;45241;49.768;8.636;2023-04-23T03:15:54;99567.59;;;14.42;100.00
59435;BME280;45241;49.768;8.636;2023-04-23T03:18:20;99565.47;;;14.32;100.00
59435;BME280;45241;49.768;8.636;2023-04-23T03:20:45;99562.00;;;14.14;100.00
59435;BME280;45241;49.768;8.636;2023-04-23T03:23:11;99566.78;;;14.12;100.00
59435;BME280;45241;49.768;8.636;2023-04-23T03:25:36;99564.22;;;14.17;100.00
59435;BME280;45241;49.768;8.636;2023-04-23T03:28:01;99563.44;;;14.28;100.00
59435;BME280;45241;49.768;8.636;2023-04-23T03:30:28;99566.50;;;14.31;100.00
59435;BME280;45241;49.768;8.636;2023-04-23T03:32:54;99566.69;;;14.18;100.00
59435;BME280;45241;49.768;8.636;2023-04-23T03:35:21;99567.81;;;14.29;100.00
59435;BME280;45241;49.768;8.636;2023-04-23T03:37:47;99567.00;;;14.40;100.00
59435;BME280;45241;49.768;8.636;2023-04-23T03:40:12;99573.69;;;14.49;100.00
59435;BME280;45241;49.768;8.636;2023-04-23T03:42:37;99575.94;;;14.52;100.00
59435;BME280;45241;49.768;8.636;2023-04-23T03:45:03;99583.78;;;14.42;100.00
59435;BME280;45241;49.768;8.636;2023-04-23T03:47:28;99585.91;;;14.22;100.00
59435;BME280;45241;49.768;8.636;2023-04-23T03:49:54;99577.66;;;14.35;100.00
59435;BME280;45241;49.768;8.636;2023-04-23T03:52:20;99567.34;;;14.44;100.00
59435;BME280;45241;49.768;8.636;2023-04-23T03:54:45;99569.72;;;14.40;100.00
59435;BME280;45241;49.768;8.636;2023-04-23T03:57:10;99570.78;;;14.21;100.00
59435;BME280;45241;49.768;8.636;2023-04-23T03:59:36;99570.13;;;14.25;100.00
59435;BME280;45241;49.768;8.636;2023-04-23T04:02:02;99569.31;;;14.36;100.00
59435;BME280;45241;49.768;8.636;2023-04-23T04:04:29;99562.66;;;14.39;100.00
59435;BME280;45241;49.768;8.636;2023-04-23T04:06:54;99560.88;;;14.33;100.00
59435;BME280;45241;49.768;8.636;2023-04-23T04:09:20;99560.09;;;14.44;100.00
59435;BME280;45241;49.768;8.636;2023-04-23T04:11:46;99554.22;;;14.47;100.00
59435;BME280;45241;49.768;8.636;2023-04-23T04:14:12;99555.63;;;14.50;100.00
59435;BME280;45241;49.768;8.636;2023-04-23T04:16:37;99559.25;;;14.32;100.00
59435;BME280;45241;49.768;8.636;2023-04-23T04:19:03;99560.16;;;14.26;100.00
59435;BME280;45241;49.768;8.636;2023-04-23T04:21:28;99562.41;;;14.29;100.00
59435;BME280;45241;49.768;8.636;2023-04-23T04:23:54;99567.84;;;14.10;100.00
59435;BME280;45241;49.768;8.636;2023-04-23T04:26:20;99568.66;;;14.11;100.00
59435;BME280;45241;49.768;8.636;2023-04-23T04:28:45;99567.69;;;14.35;100.00
59435;BME280;45241;49.768;8.636;2023-04-23T04:31:12;99570.94;;;14.26;100.00
59435;BME280;45241;49.768;8.636;2023-04-23T04:33:38;99577.81;;;14.22;100.00
59435;BME280;45241;49.768;8.636;2023-04-23T04:36:04;99576.19;;;14.21;100.00
59435;BME280;45241;49.768;8.636;2023-04-23T04:38:29;99578.06;;;14.20;100.00
59435;BME280;45241;49.768;8.636;2023-04-23T04:40:55;99583.41;;;14.08;100.00
59435;BME280;45241;49.768;8.636;2023-04-23T04:43:24;99572.41;;;14.10;100.00
59435;BME280;45241;49.768;8.636;2023-04-23T04:45:50;99577.47;;;14.18;100.00
59435;BME280;45241;49.768;8.636;2023-04-23T04:48:16;99578.19;;;14.14;100.00
59435;BME280;45241;49.768;8.636;2023-04-23T04:50:41;99570.53;;;14.10;100.00
59435;BME280;45241;49.768;8.636;2023-04-23T04:53:06;99581.97;;;13.94;100.00
59435;BME280;45241;49.768;8.636;2023-04-23T04:55:32;99583.28;;;14.03;100.00
59435;BME280;45241;49.768;8.636;2023-04-23T04:57:57;99577.91;;;14.03;100.00
59435;BME280;45241;49.768;8.636;2023-04-23T05:00:24;99569.78;;;13.92;100.00
59435;BME280;45241;49.768;8.636;2023-04-23T05:02:52;99577.06;;;13.73;100.00
59435;BME280;45241;49.768;8.636;2023-04-23T05:05:18;99573.34;;;14.04;100.00
59435;BME280;45241;49.768;8.636;2023-04-23T05:07:44;99572.25;;;13.93;100.00
59435;BME280;45241;49.768;8.636;2023-04-23T05:10:10;99572.59;;;13.67;100.00
59435;BME280;45241;49.768;8.636;2023-04-23T05:12:35;99577.03;;;13.91;100.00
59435;BME280;45241;49.768;8.636;2023-04-23T05:15:01;99580.69;;;13.97;100.00
59435;BME280;45241;49.768;8.636;2023-04-23T05:17:28;99588.91;;;14.02;100.00
59435;BME280;45241;49.768;8.636;2023-04-23T05:19:53;99587.69;;;13.86;100.00
59435;BME280;45241;49.768;8.636;2023-04-23T05:22:19;99598.09;;;14.13;100.00
59435;BME280;45241;49.768;8.636;2023-04-23T05:24:44;99597.13;;;14.07;100.00
59435;BME280;45241;49.768;8.636;2023-04-23T05:27:10;99592.03;;;13.99;100.00
59435;BME280;45241;49.768;8.636;2023-04-23T05:29:35;99593.34;;;13.96;100.00
59435;BME280;45241;49.768;8.636;2023-04-23T05:32:01;99588.75;;;13.97;100.00
59435;BME280;45241;49.768;8.636;2023-04-23T05:34:26;99590.78;;;14.01;100.00
59435;BME280;45241;49.768;8.636;2023-04-23T05:36:51;99590.41;;;13.98;100.00
59435;BME280;45241;49.768;8.636;2023-04-23T05:39:17;99585.72;;;13.93;100.00
59435;BME280;45241;49.768;8.636;2023-04-23T05:41:42;99579.16;;;13.89;100.00
59435;BME280;45241;49.768;8.636;2023-04-23T05:44:07;99587.31;;;14.13;100.00
59435;BME280;45241;49.768;8.636;2023-04-23T05:46:32;99587.13;;;13.66;100.00
59435;BME280;45241;49.768;8.636;2023-04-23T05:48:58;99589.16;;;14.00;100.00
59435;BME280;45241;49.768;8.636;2023-04-23T05:51:23;99581.31;;;14.10;100.00
59435;BME280;45241;49.768;8.636;2023-04-23T05:53:49;99582.81;;;14.06;100.00
59435;BME280;45241;49.768;8.636;2023-04-23T05:56:14;99585.09;;;14.21;100.00
59435;BME280;45241;49.768;8.636;2023-04-23T05:58:39;99582.94;;;14.12;100.00
59435;BME280;45241;49.768;8.636;2023-04-23T06:01:05;99583.56;;;14.14;100.00
59435;BME280;45241;49.768;8.636;2023-04-23T06:03:30;99580.63;;;14.15;100.00
59435;BME280;45241;49.768;8.636;2023-04-23T06:05:55;99583.88;;;14.35;100.00
59435;BME280;45241;49.768;8.636;2023-04-23T06:08:21;99581.50;;;14.27;100.00
59435;BME280;45241;49.768;8.636;2023-04-23T06:10:46;99588.44;;;14.35;100.00
59435;BME280;45241;49.768;8.636;2023-04-23T06:13:11;99593.72;;;14.30;100.00
59435;BME280;45241;49.768;8.636;2023-04-23T06:15:37;99582.00;;;14.36;100.00
59435;BME280;45241;49.768;8.636;2023-04-23T06:18:02;99590.69;;;14.08;100.00
59435;BME280;45241;49.768;8.636;2023-04-23T06:20:28;99590.47;;;14.21;100.00
59435;BME280;45241;49.768;8.636;2023-04-23T06:22:54;99594.38;;;14.25;100.00
59435;BME280;45241;49.768;8.636;2023-04-23T06:25:19;99593.53;;;14.25;100.00
59435;BME280;45241;49.768;8.636;2023-04-23T06:27:45;99588.03;;;14.20;100.00
59435;BME280;45241;49.768;8.636;2023-04-23T06:30:10;99593.59;;;14.36;100.00
59435;BME280;45241;49.768;8.636;2023-04-23T06:32:36;99587.50;;;14.29;100.00
59435;BME280;45241;49.768;8.636;2023-04-23T06:35:01;99586.28;;;14.25;100.00
59435;BME280;45241;49.768;8.636;2023-04-23T06:37:27;99582.81;;;14.36;100.00
59435;BME280;45241;49.768;8.636;2023-04-23T06:39:52;99588.94;;;14.44;100.00
59435;BME280;45241;49.768;8.636;2023-04-23T06:42:17;99578.16;;;14.55;100.00
59435;BME280;45241;49.768;8.636;2023-04-23T06:44:43;99574.06;;;14.53;98.80
59435;BME280;45241;49.768;8.636;2023-04-23T06:47:08;99563.03;;;14.66;100.00
59435;BME280;45241;49.768;8.636;2023-04-23T06:49:33;99569.00;;;14.56;100.00
59435;BME280;45241;49.768;8.636;2023-04-23T06:51:59;99570.91;;;14.67;100.00
59435;BME280;45241;49.768;8.636;2023-04-23T06:54:24;99567.25;;;14.74;99.84
59435;BME280;45241;49.768;8.636;2023-04-23T06:56:50;99559.50;;;14.89;100.00
59435;BME280;45241;49.768;8.636;2023-04-23T06:59:16;99560.22;;;14.96;99.48
59435;BME280;45241;49.768;8.636;2023-04-23T07:01:41;99558.91;;;14.87;97.13
59435;BME280;45241;49.768;8.636;2023-04-23T07:04:07;99562.75;;;15.14;97.22
59435;BME280;45241;49.768;8.636;2023-04-23T07:06:32;99561.50;;;15.17;94.86
59435;BME280;45241;49.768;8.636;2023-04-23T07:08:58;99569.59;;;15.17;96.12
59435;BME280;45241;49.768;8.636;2023-04-23T07:11:24;99569.19;;;15.37;96.47
59435;BME280;45241;49.768;8.636;2023-04-23T07:13:50;99564.88;;;15.12;97.17
59435;BME280;45241;49.768;8.636;2023-04-23T07:16:15;99562.69;;;14.97;95.15
59435;BME280;45241;49.768;8.636;2023-04-23T07:18:40;99557.63;;;15.01;95.01
59435;BME280;45241;49.768;8.636;2023-04-23T07:21:06;99562.06;;;15.19;92.95
59435;BME280;45241;49.768;8.636;2023-04-23T07:23:31;99568.81;;;15.45;93.85
59435;BME280;45241;49.768;8.636;2023-04-23T07:25:56;99559.91;;;15.44;93.87
59435;BME280;45241;49.768;8.636;2023-04-23T07:28:22;99557.78;;;15.58;93.18
59435;BME280;45241;49.768;8.636;2023-04-23T07:30:47;99562.78;;;15.66;95.28
59435;BME280;45241;49.768;8.636;2023-04-23T07:33:13;99552.13;;;15.48;91.73
59435;BME280;45241;49.768;8.636;2023-04-23T07:35:38;99545.59;;;15.32;92.23
59435;BME280;45241;49.768;8.636;2023-04-23T07:38:04;99545.09;;;15.59;94.29
59435;BME280;45241;49.768;8.636;2023-04-23T07:40:29;99544.34;;;15.63;88.93
59435;BME280;45241;49.768;8.636;2023-04-23T07:42:55;99547.09;;;15.80;93.50
59435;BME280;45241;49.768;8.636;2023-04-23T07:45:22;99546.19;;;15.74;93.06
59435;BME280;45241;49.768;8.636;2023-04-23T07:47:48;99542.63;;;15.85;89.58
59435;BME280;45241;49.768;8.636;2023-04-23T07:50:14;99537.41;;;16.12;91.30
59435;BME280;45241;49.768;8.636;2023-04-23T07:52:39;99548.00;;;16.14;87.70
59435;BME280;45241;49.768;8.636;2023-04-23T07:55:06;99551.56;;;16.03;88.26
59435;BME280;45241;49.768;8.636;2023-04-23T07:57:31;99544.28;;;16.03;90.75
59435;BME280;45241;49.768;8.636;2023-04-23T07:59:56;99547.84;;;15.75;88.37
59435;BME280;45241;49.768;8.636;2023-04-23T08:02:22;99546.75;;;16.05;91.23
59435;BME280;45241;49.768;8.636;2023-04-23T08:04:50;99547.63;;;15.65;86.98
59435;BME280;45241;49.768;8.636;2023-04-23T08:07:15;99544.00;;;15.88;89.53
59435;BME280;45241;49.768;8.636;2023-04-23T08:09:41;99541.63;;;15.92;87.54
59435;BME280;45241;49.768;8.636;2023-04-23T08:12:06;99546.34;;;16.13;87.93
59435;BME280;45241;49.768;8.636;2023-04-23T08:14:32;99529.44;;;16.06;89.25
59435;BME280;45241;49.768;8.636;2023-04-23T08:16:57;99539.25;;;16.24;87.59
59435;BME280;45241;49.768;8.636;2023-04-23T08:19:22;99531.44;;;16.10;88.60
59435;BME280;45241;49.768;8.636;2023-04-23T08:21:48;99532.75;;;15.79;89.33
59435;BME280;45241;49.768;8.636;2023-04-23T08:24:13;99524.16;;;16.11;90.56
59435;BME280;45241;49.768;8.636;2023-04-23T08:26:38;99529.25;;;16.24;89.74
59435;BME280;45241;49.768;8.636;2023-04-23T08:29:04;99523.56;;;16.59;85.83
59435;BME280;45241;49.768;8.636;2023-04-23T08:31:30;99523.91;;;16.63;85.53
59435;BME280;45241;49.768;8.636;2023-04-23T08:33:55;99520.53;;;16.89;85.35
59435;BME280;45241;49.768;8.636;2023-04-23T08:36:21;99515.31;;;17.05;87.59
59435;BME280;45241;49.768;8.636;2023-04-23T08:38:46;99503.75;;;16.92;84.59
59435;BME280;45241;49.768;8.636;2023-04-23T08:41:13;99507.50;;;17.08;84.28
59435;BME280;45241;49.768;8.636;2023-04-23T08:43:51;99507.41;;;16.64;84.31
59435;BME280;45241;49.768;8.636;2023-04-23T08:46:22;99511.78;;;17.26;86.17
59435;BME280;45241;49.768;8.636;2023-04-23T08:48:51;99501.56;;;17.11;84.22
59435;BME280;45241;49.768;8.636;2023-04-23T08:51:17;99505.22;;;17.44;81.64
59435;BME280;45241;49.768;8.636;2023-04-23T08:53:48;99502.50;;;17.22;83.39
59435;BME280;45241;49.768;8.636;2023-04-23T08:56:15;99500.63;;;17.22;84.48
59435;BME280;45241;49.768;8.636;2023-04-23T08:58:40;99500.03;;;16.98;81.75
59435;BME280;45241;49.768;8.636;2023-04-23T09:01:06;99502.19;;;16.75;80.89
59435;BME280;45241;49.768;8.636;2023-04-23T09:03:32;99492.19;;;16.97;82.44
59435;BME280;45241;49.768;8.636;2023-04-23T09:05:57;99491.00;;;16.71;83.71
59435;BME280;45241;49.768;8.636;2023-04-23T09:08:23;99495.25;;;16.84;81.36
59435;BME280;45241;49.768;8.636;2023-04-23T09:10:50;99487.13;;;16.84;81.01
59435;BME280;45241;49.768;8.636;2023-04-23T09:13:16;99485.88;;;17.35;79.80
59435;BME280;45241;49.768;8.636;2023-04-23T09:15:42;99489.66;;;17.34;78.08
59435;BME280;45241;49.768;8.636;2023-04-23T09:18:08;99482.66;;;18.19;80.78
59435;BME280;45241;49.768;8.636;2023-04-23T09:20:34;99486.00;;;17.99;74.34
59435;BME280;45241;49.768;8.636;2023-04-23T09:23:00;99475.59;;;17.86;73.21
59435;BME280;45241;49.768;8.636;2023-04-23T09:25:25;99471.91;;;17.97;74.60
59435;BME280;45241;49.768;8.636;2023-04-23T09:27:51;99479.56;;;18.05;72.18
59435;BME280;45241;49.768;8.636;2023-04-23T09:30:17;99484.50;;;17.81;72.68
59435;BME280;45241;49.768;8.636;2023-04-23T09:32:44;99487.13;;;17.76;73.35
59435;BME280;45241;49.768;8.636;2023-04-23T09:35:14;99470.88;;;18.03;71.78
59435;BME280;45241;49.768;8.636;2023-04-23T09:37:41;99476.31;;;18.40;71.30
59435;BME280;45241;49.768;8.636;2023-04-23T09:40:12;99468.34;;;18.29;68.94
59435;BME280;45241;49.768;8.636;2023-04-23T09:42:37;99450.78;;;18.41;70.84
59435;BME280;45241;49.768;8.636;2023-04-23T09:45:07;99465.34;;;18.25;66.10
59435;BME280;45241;49.768;8.636;2023-04-23T09:47:39;99460.69;;;17.88;69.62
59435;BME280;45241;49.768;8.636;2023-04-23T09:50:06;99459.94;;;17.93;69.09
59435;BME280;45241;49.768;8.636;2023-04-23T09:52:37;99468.63;;;17.95;71.02
59435;BME280;45241;49.768;8.636;2023-04-23T09:55:02;99451.66;;;18.42;68.75
59435;BME280;45241;49.768;8.636;2023-04-23T09:57:30;99453.19;;;18.75;70.44
59435;BME280;45241;49.768;8.636;2023-04-23T09:59:56;99442.66;;;18.41;64.86
59435;BME280;45241;49.768;8.636;2023-04-23T10:02:26;99441.44;;;18.59;65.01
59435;BME280;45241;49.768;8.636;2023-04-23T10:04:53;99438.31;;;18.40;66.75
59435;BME280;45241;49.768;8.636;2023-04-23T10:07:18;99434.09;;;18.17;65.67
59435;BME280;45241;49.768;8.636;2023-04-23T10:09:45;99433.91;;;18.29;67.94
59435;BME280;45241;49.768;8.636;2023-04-23T10:12:12;99429.16;;;18.52;69.37
59435;BME280;45241;49.768;8.636;2023-04-23T10:14:38;99433.06;;;18.24;66.70
59435;BME280;45241;49.768;8.636;2023-04-23T10:17:04;99441.09;;;18.08;68.79
59435;BME280;45241;49.768;8.636;2023-04-23T10:19:31;99421.84;;;18.15;68.11
59435;BME280;45241;49.768;8.636;2023-04-23T10:22:03;99420.19;;;18.46;68.58
59435;BME280;45241;49.768;8.636;2023-04-23T10:24:34;99428.41;;;18.61;71.01
59435;BME280;45241;49.768;8.636;2023-04-23T10:27:03;99427.53;;;18.98;69.87
59435;BME280;45241;49.768;8.636;2023-04-23T10:29:31;99431.00;;;18.88;66.05
59435;BME280;45241;49.768;8.636;2023-04-23T10:31:59;99432.31;;;18.81;67.29
59435;BME280;45241;49.768;8.636;2023-04-23T10:34:25;99424.78;;;18.45;66.98
59435;BME280;45241;49.768;8.636;2023-04-23T10:36:51;99416.25;;;18.74;65.97
59435;BME280;45241;49.768;8.636;2023-04-23T10:39:20;99423.84;;;18.72;64.07
59435;BME280;45241;49.768;8.636;2023-04-23T10:41:47;99404.19;;;18.55;63.40
59435;BME280;45241;49.768;8.636;2023-04-23T10:44:13;99421.78;;;18.84;66.26
59435;BME280;45241;49.768;8.636;2023-04-23T10:46:53;99412.25;;;18.82;66.61
59435;BME280;45241;49.768;8.636;2023-04-23T10:49:22;99408.00;;;19.11;65.20
59435;BME280;45241;49.768;8.636;2023-04-23T10:51:47;99401.41;;;18.82;64.64
59435;BME280;45241;49.768;8.636;2023-04-23T10:54:14;99403.13;;;19.13;64.63
59435;BME280;45241;49.768;8.636;2023-04-23T10:56:41;99392.84;;;19.20;64.26
59435;BME280;45241;49.768;8.636;2023-04-23T10:59:20;99385.19;;;19.12;65.21
59435;BME280;45241;49.768;8.636;2023-04-23T11:01:46;99391.78;;;19.57;63.50
59435;BME280;45241;49.768;8.636;2023-04-23T11:04:19;99403.25;;;19.89;64.32
59435;BME280;45241;49.768;8.636;2023-04-23T11:11:59;99385.50;;;18.58;64.39
59435;BME280;45241;49.768;8.636;2023-04-23T11:17:11;99384.94;;;19.19;62.82
59435;BME280;45241;49.768;8.636;2023-04-23T11:19:37;99377.91;;;19.43;64.03
59435;BME280;45241;49.768;8.636;2023-04-23T11:22:12;99372.81;;;19.77;61.01
59435;BME280;45241;49.768;8.636;2023-04-23T11:24:41;99373.28;;;19.38;61.79
59435;BME280;45241;49.768;8.636;2023-04-23T11:27:09;99363.28;;;19.75;62.09
59435;BME280;45241;49.768;8.636;2023-04-23T11:29:39;99358.09;;;19.53;61.69
59435;BME280;45241;49.768;8.636;2023-04-23T11:32:04;99349.31;;;20.32;61.65
59435;BME280;45241;49.768;8.636;2023-04-23T11:34:35;99343.16;;;20.01;59.19
59435;BME280;45241;49.768;8.636;2023-04-23T11:37:01;99335.78;;;19.25;57.94
59435;BME280;45241;49.768;8.636;2023-04-23T11:39:27;99332.53;;;19.44;60.12
59435;BME280;45241;49.768;8.636;2023-04-23T11:41:53;99334.97;;;19.45;56.79
59435;BME280;45241;49.768;8.636;2023-04-23T11:44:21;99326.00;;;19.65;57.12
59435;BME280;45241;49.768;8.636;2023-04-23T11:46:47;99340.16;;;19.47;55.53
59435;BME280;45241;49.768;8.636;2023-04-23T11:49:14;99333.34;;;19.70;57.03
59435;BME280;45241;49.768;8.636;2023-04-23T11:51:40;99323.03;;;19.77;55.44
59435;BME280;45241;49.768;8.636;2023-04-23T11:54:07;99320.84;;;19.94;55.57
59435;BME280;45241;49.768;8.636;2023-04-23T11:56:32;99325.13;;;20.25;53.90
59435;BME280;45241;49.768;8.636;2023-04-23T11:59:00;99324.88;;;20.92;55.57
59435;BME280;45241;49.768;8.636;2023-04-23T12:01:38;99317.03;;;21.24;49.72
59435;BME280;45241;49.768;8.636;2023-04-23T12:06:46;99315.47;;;20.59;52.04
59435;BME280;45241;49.768;8.636;2023-04-23T12:09:13;99317.44;;;20.43;54.93
59435;BME280;45241;49.768;8.636;2023-04-23T12:11:40;99307.44;;;20.23;54.73
59435;BME280;45241;49.768;8.636;2023-04-23T12:14:06;99301.28;;;20.62;53.45
59435;BME280;45241;49.768;8.636;2023-04-23T12:16:40;99287.66;;;20.72;52.96
59435;BME280;45241;49.768;8.636;2023-04-23T12:19:13;99275.09;;;21.20;49.95
59435;BME280;45241;49.768;8.636;2023-04-23T12:24:14;99273.50;;;20.70;50.54
59435;BME280;45241;49.768;8.636;2023-04-23T12:26:40;99261.19;;;21.22;50.39
59435;BME280;45241;49.768;8.636;2023-04-23T12:29:06;99260.88;;;21.28;50.42
59435;BME280;45241;49.768;8.636;2023-04-23T12:31:32;99263.69;;;21.13;49.73
59435;BME280;45241;49.768;8.636;2023-04-23T12:34:02;99252.91;;;21.66;51.08
59435;BME280;45241;49.768;8.636;2023-04-23T12:36:29;99251.72;;;21.77;48.91
59435;BME280;45241;49.768;8.636;2023-04-23T12:41:52;99247.75;;;21.64;46.71
59435;BME280;45241;49.768;8.636;2023-04-23T12:44:19;99246.63;;;21.65;49.51
59435;BME280;45241;49.768;8.636;2023-04-23T12:46:48;99248.16;;;21.77;47.67
59435;BME280;45241;49.768;8.636;2023-04-23T12:49:13;99250.63;;;22.02;49.21
59435;BME280;45241;49.768;8.636;2023-04-23T12:51:39;99224.78;;;21.41;46.93
59435;BME280;45241;49.768;8.636;2023-04-23T12:54:04;99233.97;;;22.04;50.93
59435;BME280;45241;49.768;8.636;2023-04-23T12:56:30;99223.75;;;22.14;48.68
59435;BME280;45241;49.768;8.636;2023-04-23T12:58:55;99212.78;;;23.32;45.77
59435;BME280;45241;49.768;8.636;2023-04-23T13:01:20;99207.75;;;23.39;43.45
59435;BME280;45241;49.768;8.636;2023-04-23T13:03:46;99214.03;;;22.27;45.48
59435;BME280;45241;49.768;8.636;2023-04-23T13:06:11;99212.47;;;22.21;45.86